sensor_id;sensor_type;location;lat;lon;timestamp;P1;durP1;ratioP1;P2;durP2;ratioP2
49071;SDS011;52656;52.610;10.236;2023-04-10T00:01:00;40.57;;;25.27;;
49071;SDS011;52656;52.610;10.236;2023-04-10T00:03:26;48.25;;;26.30;;
49071;SDS011;52656;52.610;10.236;2023-04-10T00:05:52;49.67;;;28.85;;
49071;SDS011;52656;52.610;10.236;2023-04-10T00:08:18;47.05;;;26.67;;
49071;SDS011;52656;52.610;10.236;2023-04-10T00:10:45;43.72;;;27.58;;
49071;SDS011;52656;52.610;10.236;2023-04-10T00:13:10;43.95;;;26.48;;
49071;SDS011;52656;52.610;10.236;2023-04-10T00:15:35;48.30;;;27.63;;
49071;SDS011;52656;52.610;10.236;2023-04-10T00:18:01;44.17;;;27.17;;
49071;SDS011;52656;52.610;10.236;2023-04-10T00:20:26;47.30;;;27.50;;
49071;SDS011;52656;52.610;10.236;2023-04-10T00:22:51;42.80;;;27.02;;
49071;SDS011;52656;52.610;10.236;2023-04-10T00:25:17;43.03;;;26.58;;
49071;SDS011;52656;52.610;10.236;2023-04-10T00:27:42;45.15;;;27.17;;
49071;SDS011;52656;52.610;10.236;2023-04-10T00:30:08;44.93;;;26.43;;
49071;SDS011;52656;52.610;10.236;2023-04-10T00:32:33;43.00;;;26.00;;
49071;SDS011;52656;52.610;10.236;2023-04-10T00:34:58;46.13;;;27.60;;
49071;SDS011;52656;52.610;10.236;2023-04-10T00:37:24;45.05;;;25.45;;
49071;SDS011;52656;52.610;10.236;2023-04-10T00:39:49;43.53;;;27.17;;
49071;SDS011;52656;52.610;10.236;2023-04-10T00:42:15;44.38;;;26.77;;
49071;SDS011;52656;52.610;10.236;2023-04-10T00:44:40;41.83;;;25.20;;
49071;SDS011;52656;52.610;10.236;2023-04-10T00:47:06;42.13;;;25.23;;
49071;SDS011;52656;52.610;10.236;2023-04-10T00:49:32;48.33;;;28.63;;
49071;SDS011;52656;52.610;10.236;2023-04-10T00:51:58;46.22;;;27.30;;
49071;SDS011;52656;52.610;10.236;2023-04-10T00:54:23;46.10;;;27.98;;
49071;SDS011;52656;52.610;10.236;2023-04-10T00:56:48;49.70;;;28.02;;
49071;SDS011;52656;52.610;10.236;2023-04-10T00:59:14;47.95;;;27.17;;
49071;SDS011;52656;52.610;10.236;2023-04-10T01:01:40;51.10;;;29.10;;
49071;SDS011;52656;52.610;10.236;2023-04-10T01:04:05;49.22;;;28.33;;
49071;SDS011;52656;52.610;10.236;2023-04-10T01:09:57;45.10;;;25.95;;
49071;SDS011;52656;52.610;10.236;2023-04-10T01:14:54;49.00;;;27.90;;
49071;SDS011;52656;52.610;10.236;2023-04-10T01:20:13;46.72;;;26.35;;
49071;SDS011;52656;52.610;10.236;2023-04-10T01:25:53;44.55;;;26.92;;
49071;SDS011;52656;52.610;10.236;2023-04-10T01:28:23;47.15;;;26.65;;
49071;SDS011;52656;52.610;10.236;2023-04-10T01:31:02;43.90;;;25.90;;
49071;SDS011;52656;52.610;10.236;2023-04-10T01:33:42;48.90;;;27.42;;
49071;SDS011;52656;52.610;10.236;2023-04-10T01:36:10;45.58;;;25.80;;
49071;SDS011;52656;52.610;10.236;2023-04-10T01:38:37;46.25;;;25.33;;
49071;SDS011;52656;52.610;10.236;2023-04-10T01:41:07;45.00;;;26.75;;
49071;SDS011;52656;52.610;10.236;2023-04-10T01:43:32;45.22;;;26.75;;
49071;SDS011;52656;52.610;10.236;2023-04-10T01:45:58;45.92;;;26.30;;
49071;SDS011;52656;52.610;10.236;2023-04-10T01:48:27;44.55;;;25.25;;
49071;SDS011;52656;52.610;10.236;2023-04-10T01:50:53;42.60;;;26.65;;
49071;SDS011;52656;52.610;10.236;2023-04-10T01:53:19;44.33;;;25.90;;
49071;SDS011;52656;52.610;10.236;2023-04-10T01:55:47;46.80;;;26.92;;
49071;SDS011;52656;52.610;10.236;2023-04-10T01:58:13;43.03;;;24.83;;
49071;SDS011;52656;52.610;10.236;2023-04-10T02:00:39;46.92;;;26.58;;
49071;SDS011;52656;52.610;10.236;2023-04-10T02:03:06;46.80;;;26.33;;
49071;SDS011;52656;52.610;10.236;2023-04-10T02:05:35;44.50;;;26.63;;
49071;SDS011;52656;52.610;10.236;2023-04-10T02:08:11;40.78;;;24.63;;
49071;SDS011;52656;52.610;10.236;2023-04-10T02:10:51;42.70;;;26.35;;
49071;SDS011;52656;52.610;10.236;2023-04-10T02:13:20;42.72;;;24.73;;
49071;SDS011;52656;52.610;10.236;2023-04-10T02:15:47;44.85;;;25.85;;
49071;SDS011;52656;52.610;10.236;2023-04-10T02:18:15;41.92;;;23.85;;
49071;SDS011;52656;52.610;10.236;2023-04-10T02:20:43;44.58;;;25.45;;
49071;SDS011;52656;52.610;10.236;2023-04-10T02:23:08;42.83;;;26.15;;
49071;SDS011;52656;52.610;10.236;2023-04-10T02:25:34;54.35;;;27.60;;
49071;SDS011;52656;52.610;10.236;2023-04-10T02:28:03;50.83;;;27.95;;
49071;SDS011;52656;52.610;10.236;2023-04-10T02:30:29;52.67;;;28.20;;
49071;SDS011;52656;52.610;10.236;2023-04-10T02:32:55;51.33;;;29.07;;
49071;SDS011;52656;52.610;10.236;2023-04-10T02:35:20;56.63;;;30.17;;
49071;SDS011;52656;52.610;10.236;2023-04-10T02:37:46;54.45;;;30.45;;
49071;SDS011;52656;52.610;10.236;2023-04-10T02:40:11;54.78;;;30.15;;
49071;SDS011;52656;52.610;10.236;2023-04-10T02:42:36;51.57;;;28.03;;
49071;SDS011;52656;52.610;10.236;2023-04-10T02:45:02;52.33;;;25.40;;
49071;SDS011;52656;52.610;10.236;2023-04-10T02:47:27;54.92;;;31.23;;
49071;SDS011;52656;52.610;10.236;2023-04-10T02:49:53;57.72;;;32.17;;
49071;SDS011;52656;52.610;10.236;2023-04-10T02:52:18;52.45;;;28.52;;
49071;SDS011;52656;52.610;10.236;2023-04-10T02:54:43;54.55;;;29.92;;
49071;SDS011;52656;52.610;10.236;2023-04-10T02:57:09;53.30;;;30.17;;
49071;SDS011;52656;52.610;10.236;2023-04-10T02:59:34;52.23;;;29.47;;
49071;SDS011;52656;52.610;10.236;2023-04-10T03:01:59;47.53;;;29.07;;
49071;SDS011;52656;52.610;10.236;2023-04-10T03:04:25;50.07;;;27.33;;
49071;SDS011;52656;52.610;10.236;2023-04-10T03:06:50;52.30;;;30.37;;
49071;SDS011;52656;52.610;10.236;2023-04-10T03:09:15;54.20;;;29.50;;
49071;SDS011;52656;52.610;10.236;2023-04-10T03:11:41;54.20;;;29.27;;
49071;SDS011;52656;52.610;10.236;2023-04-10T03:14:06;53.17;;;29.45;;
49071;SDS011;52656;52.610;10.236;2023-04-10T03:16:33;52.58;;;29.08;;
49071;SDS011;52656;52.610;10.236;2023-04-10T03:18:59;49.85;;;29.25;;
49071;SDS011;52656;52.610;10.236;2023-04-10T03:21:25;46.40;;;27.27;;
49071;SDS011;52656;52.610;10.236;2023-04-10T03:26:16;51.92;;;28.33;;
49071;SDS011;52656;52.610;10.236;2023-04-10T03:28:41;54.03;;;28.77;;
49071;SDS011;52656;52.610;10.236;2023-04-10T03:31:07;45.30;;;26.60;;
49071;SDS011;52656;52.610;10.236;2023-04-10T03:33:32;52.58;;;28.92;;
49071;SDS011;52656;52.610;10.236;2023-04-10T03:35:57;55.07;;;28.77;;
49071;SDS011;52656;52.610;10.236;2023-04-10T03:38:23;52.30;;;28.90;;
49071;SDS011;52656;52.610;10.236;2023-04-10T03:40:48;51.63;;;29.05;;
49071;SDS011;52656;52.610;10.236;2023-04-10T03:43:13;50.20;;;27.25;;
49071;SDS011;52656;52.610;10.236;2023-04-10T03:45:39;55.28;;;27.80;;
49071;SDS011;52656;52.610;10.236;2023-04-10T03:48:04;50.45;;;26.05;;
49071;SDS011;52656;52.610;10.236;2023-04-10T03:50:30;43.47;;;24.83;;
49071;SDS011;52656;52.610;10.236;2023-04-10T03:52:55;49.00;;;27.52;;
49071;SDS011;52656;52.610;10.236;2023-04-10T03:55:21;47.50;;;27.27;;
49071;SDS011;52656;52.610;10.236;2023-04-10T03:57:46;47.97;;;26.20;;
49071;SDS011;52656;52.610;10.236;2023-04-10T04:02:41;53.13;;;28.00;;
49071;SDS011;52656;52.610;10.236;2023-04-10T04:05:06;51.88;;;28.77;;
49071;SDS011;52656;52.610;10.236;2023-04-10T04:07:32;58.40;;;29.83;;
49071;SDS011;52656;52.610;10.236;2023-04-10T04:09:57;53.33;;;27.52;;
49071;SDS011;52656;52.610;10.236;2023-04-10T04:12:24;48.03;;;26.27;;
49071;SDS011;52656;52.610;10.236;2023-04-10T04:14:49;51.95;;;26.55;;
49071;SDS011;52656;52.610;10.236;2023-04-10T04:17:15;48.70;;;28.00;;
49071;SDS011;52656;52.610;10.236;2023-04-10T04:19:40;54.85;;;28.85;;
49071;SDS011;52656;52.610;10.236;2023-04-10T04:22:06;52.53;;;28.10;;
49071;SDS011;52656;52.610;10.236;2023-04-10T04:24:31;52.20;;;28.63;;
49071;SDS011;52656;52.610;10.236;2023-04-10T04:26:56;53.63;;;29.20;;
49071;SDS011;52656;52.610;10.236;2023-04-10T04:29:21;55.92;;;28.02;;
49071;SDS011;52656;52.610;10.236;2023-04-10T04:31:47;54.25;;;28.67;;
49071;SDS011;52656;52.610;10.236;2023-04-10T04:34:12;46.25;;;26.70;;
49071;SDS011;52656;52.610;10.236;2023-04-10T04:36:37;54.53;;;28.57;;
49071;SDS011;52656;52.610;10.236;2023-04-10T04:39:03;48.10;;;26.00;;
49071;SDS011;52656;52.610;10.236;2023-04-10T04:41:28;46.42;;;27.00;;
49071;SDS011;52656;52.610;10.236;2023-04-10T04:43:57;49.85;;;27.27;;
49071;SDS011;52656;52.610;10.236;2023-04-10T04:46:23;51.22;;;27.92;;
49071;SDS011;52656;52.610;10.236;2023-04-10T04:48:48;50.28;;;28.38;;
49071;SDS011;52656;52.610;10.236;2023-04-10T04:51:14;50.27;;;23.17;;
49071;SDS011;52656;52.610;10.236;2023-04-10T04:53:39;46.33;;;26.43;;
49071;SDS011;52656;52.610;10.236;2023-04-10T04:56:04;49.97;;;26.57;;
49071;SDS011;52656;52.610;10.236;2023-04-10T04:58:30;49.80;;;27.45;;
49071;SDS011;52656;52.610;10.236;2023-04-10T05:00:55;43.53;;;22.90;;
49071;SDS011;52656;52.610;10.236;2023-04-10T05:03:21;48.67;;;24.60;;
49071;SDS011;52656;52.610;10.236;2023-04-10T05:05:46;46.63;;;25.92;;
49071;SDS011;52656;52.610;10.236;2023-04-10T05:08:11;47.58;;;25.67;;
49071;SDS011;52656;52.610;10.236;2023-04-10T05:10:37;47.50;;;25.60;;
49071;SDS011;52656;52.610;10.236;2023-04-10T05:13:02;46.43;;;26.97;;
49071;SDS011;52656;52.610;10.236;2023-04-10T05:15:27;45.27;;;25.83;;
49071;SDS011;52656;52.610;10.236;2023-04-10T05:17:53;41.28;;;23.27;;
49071;SDS011;52656;52.610;10.236;2023-04-10T05:20:18;42.47;;;25.85;;
49071;SDS011;52656;52.610;10.236;2023-04-10T05:22:43;47.22;;;25.80;;
49071;SDS011;52656;52.610;10.236;2023-04-10T05:25:09;45.25;;;24.90;;
49071;SDS011;52656;52.610;10.236;2023-04-10T05:27:35;44.75;;;25.42;;
49071;SDS011;52656;52.610;10.236;2023-04-10T05:30:00;45.10;;;26.15;;
49071;SDS011;52656;52.610;10.236;2023-04-10T05:32:26;42.10;;;25.33;;
49071;SDS011;52656;52.610;10.236;2023-04-10T05:34:51;41.72;;;23.38;;
49071;SDS011;52656;52.610;10.236;2023-04-10T05:37:17;46.50;;;26.13;;
49071;SDS011;52656;52.610;10.236;2023-04-10T05:39:42;42.60;;;23.83;;
49071;SDS011;52656;52.610;10.236;2023-04-10T05:42:07;42.80;;;24.30;;
49071;SDS011;52656;52.610;10.236;2023-04-10T05:44:33;46.97;;;24.93;;
49071;SDS011;52656;52.610;10.236;2023-04-10T05:46:58;38.30;;;24.13;;
49071;SDS011;52656;52.610;10.236;2023-04-10T05:49:23;40.03;;;24.33;;
49071;SDS011;52656;52.610;10.236;2023-04-10T05:51:49;42.20;;;23.43;;
49071;SDS011;52656;52.610;10.236;2023-04-10T05:54:15;39.05;;;23.48;;
49071;SDS011;52656;52.610;10.236;2023-04-10T05:56:41;42.58;;;24.88;;
49071;SDS011;52656;52.610;10.236;2023-04-10T05:59:06;40.10;;;21.80;;
49071;SDS011;52656;52.610;10.236;2023-04-10T06:01:32;39.13;;;23.52;;
49071;SDS011;52656;52.610;10.236;2023-04-10T06:03:57;36.55;;;23.08;;
49071;SDS011;52656;52.610;10.236;2023-04-10T06:06:22;36.80;;;22.55;;
49071;SDS011;52656;52.610;10.236;2023-04-10T06:08:49;39.53;;;23.55;;
49071;SDS011;52656;52.610;10.236;2023-04-10T06:11:15;36.33;;;23.08;;
49071;SDS011;52656;52.610;10.236;2023-04-10T06:13:40;37.28;;;23.55;;
49071;SDS011;52656;52.610;10.236;2023-04-10T06:16:06;38.30;;;20.00;;
49071;SDS011;52656;52.610;10.236;2023-04-10T06:18:32;34.90;;;20.75;;
49071;SDS011;52656;52.610;10.236;2023-04-10T06:20:57;37.05;;;23.02;;
49071;SDS011;52656;52.610;10.236;2023-04-10T06:23:25;36.83;;;22.75;;
49071;SDS011;52656;52.610;10.236;2023-04-10T06:28:16;30.27;;;20.02;;
49071;SDS011;52656;52.610;10.236;2023-04-10T06:30:42;30.33;;;20.02;;
49071;SDS011;52656;52.610;10.236;2023-04-10T06:33:07;31.40;;;21.10;;
49071;SDS011;52656;52.610;10.236;2023-04-10T06:35:32;29.43;;;18.63;;
49071;SDS011;52656;52.610;10.236;2023-04-10T06:37:58;32.65;;;21.23;;
49071;SDS011;52656;52.610;10.236;2023-04-10T06:40:23;32.17;;;20.30;;
49071;SDS011;52656;52.610;10.236;2023-04-10T06:42:49;32.25;;;20.15;;
49071;SDS011;52656;52.610;10.236;2023-04-10T06:45:14;28.85;;;20.55;;
49071;SDS011;52656;52.610;10.236;2023-04-10T06:47:40;31.43;;;20.63;;
49071;SDS011;52656;52.610;10.236;2023-04-10T06:50:05;30.33;;;19.15;;
49071;SDS011;52656;52.610;10.236;2023-04-10T06:52:31;28.60;;;18.85;;
49071;SDS011;52656;52.610;10.236;2023-04-10T06:54:56;26.20;;;18.23;;
49071;SDS011;52656;52.610;10.236;2023-04-10T06:57:22;26.23;;;17.70;;
49071;SDS011;52656;52.610;10.236;2023-04-10T06:59:47;25.60;;;17.58;;
49071;SDS011;52656;52.610;10.236;2023-04-10T07:02:12;26.67;;;18.13;;
49071;SDS011;52656;52.610;10.236;2023-04-10T07:04:38;24.52;;;15.40;;
49071;SDS011;52656;52.610;10.236;2023-04-10T07:07:03;22.83;;;15.48;;
49071;SDS011;52656;52.610;10.236;2023-04-10T07:09:33;25.55;;;18.50;;
49071;SDS011;52656;52.610;10.236;2023-04-10T07:11:58;26.80;;;17.75;;
49071;SDS011;52656;52.610;10.236;2023-04-10T07:14:24;22.73;;;16.08;;
49071;SDS011;52656;52.610;10.236;2023-04-10T07:19:15;24.98;;;18.42;;
49071;SDS011;52656;52.610;10.236;2023-04-10T07:21:40;25.85;;;17.38;;
49071;SDS011;52656;52.610;10.236;2023-04-10T07:24:05;21.98;;;14.32;;
49071;SDS011;52656;52.610;10.236;2023-04-10T07:28:56;25.63;;;16.38;;
49071;SDS011;52656;52.610;10.236;2023-04-10T07:33:46;20.25;;;15.30;;
49071;SDS011;52656;52.610;10.236;2023-04-10T07:38:37;22.80;;;16.52;;
49071;SDS011;52656;52.610;10.236;2023-04-10T07:43:28;23.88;;;17.13;;
49071;SDS011;52656;52.610;10.236;2023-04-10T07:48:19;22.50;;;14.25;;
49071;SDS011;52656;52.610;10.236;2023-04-10T07:53:10;19.33;;;14.85;;
49071;SDS011;52656;52.610;10.236;2023-04-10T07:58:04;21.23;;;14.95;;
49071;SDS011;52656;52.610;10.236;2023-04-10T08:02:55;20.75;;;15.93;;
49071;SDS011;52656;52.610;10.236;2023-04-10T08:05:21;19.70;;;14.90;;
49071;SDS011;52656;52.610;10.236;2023-04-10T08:10:11;18.05;;;14.50;;
49071;SDS011;52656;52.610;10.236;2023-04-10T08:12:37;18.30;;;14.77;;
49071;SDS011;52656;52.610;10.236;2023-04-10T08:15:02;16.67;;;11.98;;
49071;SDS011;52656;52.610;10.236;2023-04-10T08:17:28;18.90;;;13.57;;
49071;SDS011;52656;52.610;10.236;2023-04-10T08:19:53;17.13;;;14.60;;
49071;SDS011;52656;52.610;10.236;2023-04-10T08:22:18;16.42;;;14.10;;
49071;SDS011;52656;52.610;10.236;2023-04-10T08:24:43;15.63;;;12.93;;
49071;SDS011;52656;52.610;10.236;2023-04-10T08:27:09;16.23;;;13.82;;
49071;SDS011;52656;52.610;10.236;2023-04-10T08:29:34;15.60;;;12.85;;
49071;SDS011;52656;52.610;10.236;2023-04-10T08:31:59;16.95;;;13.73;;
49071;SDS011;52656;52.610;10.236;2023-04-10T08:34:25;15.40;;;12.52;;
49071;SDS011;52656;52.610;10.236;2023-04-10T08:36:51;14.75;;;12.40;;
49071;SDS011;52656;52.610;10.236;2023-04-10T08:39:16;15.60;;;12.80;;
49071;SDS011;52656;52.610;10.236;2023-04-10T08:41:42;14.50;;;11.68;;
49071;SDS011;52656;52.610;10.236;2023-04-10T08:44:07;14.70;;;12.32;;
49071;SDS011;52656;52.610;10.236;2023-04-10T08:46:33;15.90;;;13.02;;
49071;SDS011;52656;52.610;10.236;2023-04-10T08:49:01;13.93;;;11.20;;
49071;SDS011;52656;52.610;10.236;2023-04-10T08:51:32;14.27;;;12.40;;
49071;SDS011;52656;52.610;10.236;2023-04-10T08:54:05;13.80;;;11.55;;
49071;SDS011;52656;52.610;10.236;2023-04-10T08:56:32;12.48;;;10.88;;
49071;SDS011;52656;52.610;10.236;2023-04-10T08:59:02;13.57;;;11.75;;
49071;SDS011;52656;52.610;10.236;2023-04-10T09:01:27;12.77;;;11.13;;
49071;SDS011;52656;52.610;10.236;2023-04-10T09:03:53;11.40;;;9.68;;
49071;SDS011;52656;52.610;10.236;2023-04-10T09:06:18;12.13;;;9.13;;
49071;SDS011;52656;52.610;10.236;2023-04-10T09:08:44;12.50;;;10.02;;
49071;SDS011;52656;52.610;10.236;2023-04-10T09:11:09;11.48;;;9.75;;
49071;SDS011;52656;52.610;10.236;2023-04-10T09:13:37;11.88;;;9.13;;
49071;SDS011;52656;52.610;10.236;2023-04-10T09:16:05;11.10;;;9.55;;
49071;SDS011;52656;52.610;10.236;2023-04-10T09:21:14;11.25;;;9.43;;
49071;SDS011;52656;52.610;10.236;2023-04-10T09:23:43;10.05;;;8.35;;
49071;SDS011;52656;52.610;10.236;2023-04-10T09:26:22;11.52;;;8.98;;
49071;SDS011;52656;52.610;10.236;2023-04-10T09:34:07;9.90;;;8.30;;
49071;SDS011;52656;52.610;10.236;2023-04-10T09:36:41;11.70;;;9.27;;
49071;SDS011;52656;52.610;10.236;2023-04-10T09:39:11;9.52;;;7.65;;
49071;SDS011;52656;52.610;10.236;2023-04-10T09:41:52;11.60;;;8.88;;
49071;SDS011;52656;52.610;10.236;2023-04-10T09:44:31;10.15;;;8.52;;
49071;SDS011;52656;52.610;10.236;2023-04-10T09:49:45;10.30;;;8.00;;
49071;SDS011;52656;52.610;10.236;2023-04-10T09:54:51;12.40;;;10.27;;
49071;SDS011;52656;52.610;10.236;2023-04-10T09:57:18;10.65;;;7.15;;
49071;SDS011;52656;52.610;10.236;2023-04-10T09:59:52;8.60;;;6.18;;
49071;SDS011;52656;52.610;10.236;2023-04-10T10:02:19;10.45;;;8.23;;
49071;SDS011;52656;52.610;10.236;2023-04-10T10:04:46;9.55;;;7.20;;
49071;SDS011;52656;52.610;10.236;2023-04-10T10:07:13;9.25;;;6.18;;
49071;SDS011;52656;52.610;10.236;2023-04-10T10:09:43;8.95;;;7.28;;
49071;SDS011;52656;52.610;10.236;2023-04-10T10:12:14;10.07;;;7.80;;
49071;SDS011;52656;52.610;10.236;2023-04-10T10:17:20;9.82;;;7.63;;
49071;SDS011;52656;52.610;10.236;2023-04-10T10:20:04;9.25;;;7.25;;
49071;SDS011;52656;52.610;10.236;2023-04-10T10:22:33;9.27;;;7.55;;
49071;SDS011;52656;52.610;10.236;2023-04-10T10:24:59;9.00;;;7.10;;
49071;SDS011;52656;52.610;10.236;2023-04-10T10:27:26;10.30;;;7.25;;
49071;SDS011;52656;52.610;10.236;2023-04-10T10:29:55;9.23;;;7.25;;
49071;SDS011;52656;52.610;10.236;2023-04-10T10:32:24;8.75;;;6.22;;
49071;SDS011;52656;52.610;10.236;2023-04-10T10:34:52;9.77;;;7.93;;
49071;SDS011;52656;52.610;10.236;2023-04-10T10:37:18;11.38;;;8.20;;
49071;SDS011;52656;52.610;10.236;2023-04-10T10:40:07;9.32;;;6.68;;
49071;SDS011;52656;52.610;10.236;2023-04-10T10:45:20;8.98;;;6.85;;
49071;SDS011;52656;52.610;10.236;2023-04-10T10:47:55;10.55;;;7.47;;
49071;SDS011;52656;52.610;10.236;2023-04-10T10:50:20;10.02;;;7.53;;
49071;SDS011;52656;52.610;10.236;2023-04-10T10:52:49;9.48;;;8.10;;
49071;SDS011;52656;52.610;10.236;2023-04-10T11:00:12;10.82;;;6.28;;
49071;SDS011;52656;52.610;10.236;2023-04-10T11:02:38;7.90;;;6.45;;
49071;SDS011;52656;52.610;10.236;2023-04-10T11:05:03;8.32;;;6.13;;
49071;SDS011;52656;52.610;10.236;2023-04-10T11:08:05;7.57;;;5.55;;
49071;SDS011;52656;52.610;10.236;2023-04-10T11:10:57;9.10;;;5.68;;
49071;SDS011;52656;52.610;10.236;2023-04-10T11:13:31;7.47;;;5.60;;
49071;SDS011;52656;52.610;10.236;2023-04-10T11:16:04;8.40;;;6.00;;
49071;SDS011;52656;52.610;10.236;2023-04-10T11:21:18;8.32;;;6.88;;
49071;SDS011;52656;52.610;10.236;2023-04-10T11:28:57;9.18;;;7.38;;
49071;SDS011;52656;52.610;10.236;2023-04-10T11:31:22;9.25;;;7.22;;
49071;SDS011;52656;52.610;10.236;2023-04-10T11:33:52;9.90;;;7.50;;
49071;SDS011;52656;52.610;10.236;2023-04-10T11:36:25;11.48;;;7.43;;
49071;SDS011;52656;52.610;10.236;2023-04-10T11:41:36;8.88;;;6.05;;
49071;SDS011;52656;52.610;10.236;2023-04-10T11:44:07;11.75;;;7.88;;
49071;SDS011;52656;52.610;10.236;2023-04-10T11:46:38;10.30;;;7.82;;
49071;SDS011;52656;52.610;10.236;2023-04-10T11:49:05;12.32;;;8.27;;
49071;SDS011;52656;52.610;10.236;2023-04-10T11:51:31;9.65;;;6.60;;
49071;SDS011;52656;52.610;10.236;2023-04-10T11:54:06;9.85;;;6.85;;
49071;SDS011;52656;52.610;10.236;2023-04-10T11:56:36;13.15;;;8.35;;
49071;SDS011;52656;52.610;10.236;2023-04-10T11:59:02;12.40;;;7.80;;
49071;SDS011;52656;52.610;10.236;2023-04-10T12:01:32;10.63;;;7.05;;
49071;SDS011;52656;52.610;10.236;2023-04-10T12:03:57;12.55;;;8.60;;
49071;SDS011;52656;52.610;10.236;2023-04-10T12:06:23;14.68;;;8.52;;
49071;SDS011;52656;52.610;10.236;2023-04-10T12:08:49;14.18;;;8.55;;
49071;SDS011;52656;52.610;10.236;2023-04-10T12:11:18;12.60;;;9.43;;
49071;SDS011;52656;52.610;10.236;2023-04-10T12:13:46;13.18;;;9.50;;
49071;SDS011;52656;52.610;10.236;2023-04-10T12:16:12;13.70;;;8.93;;
49071;SDS011;52656;52.610;10.236;2023-04-10T12:18:38;12.55;;;8.90;;
49071;SDS011;52656;52.610;10.236;2023-04-10T12:21:04;13.13;;;9.07;;
49071;SDS011;52656;52.610;10.236;2023-04-10T12:23:31;9.95;;;7.05;;
49071;SDS011;52656;52.610;10.236;2023-04-10T12:28:39;11.27;;;7.70;;
49071;SDS011;52656;52.610;10.236;2023-04-10T12:31:05;9.68;;;6.65;;
49071;SDS011;52656;52.610;10.236;2023-04-10T12:33:31;10.18;;;7.05;;
49071;SDS011;52656;52.610;10.236;2023-04-10T12:35:57;8.57;;;5.75;;
49071;SDS011;52656;52.610;10.236;2023-04-10T12:38:39;8.20;;;6.10;;
49071;SDS011;52656;52.610;10.236;2023-04-10T12:41:06;8.45;;;6.45;;
49071;SDS011;52656;52.610;10.236;2023-04-10T12:43:33;7.63;;;5.70;;
49071;SDS011;52656;52.610;10.236;2023-04-10T12:46:03;8.73;;;5.72;;
49071;SDS011;52656;52.610;10.236;2023-04-10T12:48:30;9.38;;;5.57;;
49071;SDS011;52656;52.610;10.236;2023-04-10T12:50:56;8.02;;;5.13;;
49071;SDS011;52656;52.610;10.236;2023-04-10T12:53:22;5.70;;;3.83;;
49071;SDS011;52656;52.610;10.236;2023-04-10T12:58:27;8.40;;;4.03;;
49071;SDS011;52656;52.610;10.236;2023-04-10T13:00:53;6.22;;;3.67;;
49071;SDS011;52656;52.610;10.236;2023-04-10T13:03:22;5.30;;;3.65;;
49071;SDS011;52656;52.610;10.236;2023-04-10T13:05:48;4.68;;;2.70;;
49071;SDS011;52656;52.610;10.236;2023-04-10T13:08:13;5.80;;;3.63;;
49071;SDS011;52656;52.610;10.236;2023-04-10T13:10:39;4.50;;;2.95;;
49071;SDS011;52656;52.610;10.236;2023-04-10T13:13:06;5.38;;;3.45;;
49071;SDS011;52656;52.610;10.236;2023-04-10T13:15:32;5.93;;;3.90;;
49071;SDS011;52656;52.610;10.236;2023-04-10T13:18:00;4.88;;;2.95;;
49071;SDS011;52656;52.610;10.236;2023-04-10T13:20:26;6.63;;;3.55;;
49071;SDS011;52656;52.610;10.236;2023-04-10T13:22:51;5.20;;;3.42;;
49071;SDS011;52656;52.610;10.236;2023-04-10T13:25:17;4.70;;;3.22;;
49071;SDS011;52656;52.610;10.236;2023-04-10T13:27:42;4.53;;;3.22;;
49071;SDS011;52656;52.610;10.236;2023-04-10T13:30:07;4.85;;;3.20;;
49071;SDS011;52656;52.610;10.236;2023-04-10T13:32:33;4.70;;;3.40;;
49071;SDS011;52656;52.610;10.236;2023-04-10T13:34:58;5.40;;;3.50;;
49071;SDS011;52656;52.610;10.236;2023-04-10T13:37:24;5.80;;;3.05;;
49071;SDS011;52656;52.610;10.236;2023-04-10T13:39:50;4.95;;;3.70;;
49071;SDS011;52656;52.610;10.236;2023-04-10T13:42:16;4.82;;;3.35;;
49071;SDS011;52656;52.610;10.236;2023-04-10T13:44:41;8.00;;;3.80;;
49071;SDS011;52656;52.610;10.236;2023-04-10T13:47:06;5.40;;;2.95;;
49071;SDS011;52656;52.610;10.236;2023-04-10T13:49:31;5.18;;;3.42;;
49071;SDS011;52656;52.610;10.236;2023-04-10T13:51:57;6.00;;;3.35;;
49071;SDS011;52656;52.610;10.236;2023-04-10T13:54:22;5.18;;;3.22;;
49071;SDS011;52656;52.610;10.236;2023-04-10T13:56:48;6.43;;;3.50;;
49071;SDS011;52656;52.610;10.236;2023-04-10T13:59:14;7.60;;;3.45;;
49071;SDS011;52656;52.610;10.236;2023-04-10T14:01:40;6.05;;;3.10;;
49071;SDS011;52656;52.610;10.236;2023-04-10T14:04:05;5.70;;;3.65;;
49071;SDS011;52656;52.610;10.236;2023-04-10T14:06:31;6.63;;;4.00;;
49071;SDS011;52656;52.610;10.236;2023-04-10T14:08:56;6.00;;;3.80;;
49071;SDS011;52656;52.610;10.236;2023-04-10T14:11:22;5.55;;;3.75;;
49071;SDS011;52656;52.610;10.236;2023-04-10T14:13:47;6.35;;;4.15;;
49071;SDS011;52656;52.610;10.236;2023-04-10T14:16:13;5.85;;;4.30;;
49071;SDS011;52656;52.610;10.236;2023-04-10T14:18:38;5.72;;;3.83;;
49071;SDS011;52656;52.610;10.236;2023-04-10T14:21:04;6.70;;;3.78;;
49071;SDS011;52656;52.610;10.236;2023-04-10T14:23:29;5.95;;;3.80;;
49071;SDS011;52656;52.610;10.236;2023-04-10T14:25:55;5.93;;;3.63;;
49071;SDS011;52656;52.610;10.236;2023-04-10T14:28:20;6.40;;;3.97;;
49071;SDS011;52656;52.610;10.236;2023-04-10T14:30:46;7.47;;;4.25;;
49071;SDS011;52656;52.610;10.236;2023-04-10T14:33:12;5.43;;;3.67;;
49071;SDS011;52656;52.610;10.236;2023-04-10T14:35:38;6.55;;;4.22;;
49071;SDS011;52656;52.610;10.236;2023-04-10T14:38:03;5.40;;;3.65;;
49071;SDS011;52656;52.610;10.236;2023-04-10T14:40:28;6.75;;;3.70;;
49071;SDS011;52656;52.610;10.236;2023-04-10T14:42:54;6.47;;;4.32;;
49071;SDS011;52656;52.610;10.236;2023-04-10T14:45:19;5.15;;;3.53;;
49071;SDS011;52656;52.610;10.236;2023-04-10T14:47:44;6.15;;;4.10;;
49071;SDS011;52656;52.610;10.236;2023-04-10T14:50:11;5.50;;;3.83;;
49071;SDS011;52656;52.610;10.236;2023-04-10T14:52:36;6.75;;;4.18;;
49071;SDS011;52656;52.610;10.236;2023-04-10T14:55:02;6.47;;;4.28;;
49071;SDS011;52656;52.610;10.236;2023-04-10T14:57:27;6.18;;;3.47;;
49071;SDS011;52656;52.610;10.236;2023-04-10T14:59:53;5.90;;;3.90;;
49071;SDS011;52656;52.610;10.236;2023-04-10T15:02:19;8.52;;;4.95;;
49071;SDS011;52656;52.610;10.236;2023-04-10T15:04:45;5.95;;;4.63;;
49071;SDS011;52656;52.610;10.236;2023-04-10T15:07:11;7.88;;;4.07;;
49071;SDS011;52656;52.610;10.236;2023-04-10T15:09:37;5.88;;;4.40;;
49071;SDS011;52656;52.610;10.236;2023-04-10T15:12:02;6.47;;;4.43;;
49071;SDS011;52656;52.610;10.236;2023-04-10T15:14:28;7.40;;;4.10;;
49071;SDS011;52656;52.610;10.236;2023-04-10T15:16:53;5.72;;;4.13;;
49071;SDS011;52656;52.610;10.236;2023-04-10T15:19:19;5.13;;;3.42;;
49071;SDS011;52656;52.610;10.236;2023-04-10T15:21:44;8.32;;;3.78;;
49071;SDS011;52656;52.610;10.236;2023-04-10T15:24:10;5.93;;;3.78;;
49071;SDS011;52656;52.610;10.236;2023-04-10T15:26:35;6.75;;;4.30;;
49071;SDS011;52656;52.610;10.236;2023-04-10T15:29:00;5.65;;;3.88;;
49071;SDS011;52656;52.610;10.236;2023-04-10T15:31:25;8.38;;;4.30;;
49071;SDS011;52656;52.610;10.236;2023-04-10T15:33:51;7.10;;;4.30;;
49071;SDS011;52656;52.610;10.236;2023-04-10T15:36:16;7.10;;;5.07;;
49071;SDS011;52656;52.610;10.236;2023-04-10T15:38:41;8.55;;;4.60;;